createdAt,value
2023-05-24T00:01:26.086Z,3.88
2023-05-24T00:04:30.637Z,3.50
2023-05-24T00:07:33.371Z,3.65
2023-05-24T00:10:36.034Z,3.73
2023-05-24T00:13:38.592Z,3.83
2023-05-24T00:16:40.974Z,3.10
2023-05-24T00:19:43.188Z,3.58
2023-05-24T00:22:46.467Z,3.17
2023-05-24T00:25:49.254Z,3.50
2023-05-24T00:28:52.640Z,3.50
2023-05-24T00:31:54.920Z,3.67
2023-05-24T00:34:57.418Z,3.08
2023-05-24T00:37:59.939Z,3.20
2023-05-24T00:41:02.173Z,3.00
2023-05-24T00:44:04.425Z,3.60
2023-05-24T00:47:06.891Z,3.25
2023-05-24T00:50:13.342Z,3.40
2023-05-24T00:53:15.961Z,3.22
2023-05-24T00:56:18.752Z,3.23
2023-05-24T00:59:21.042Z,3.73
2023-05-24T01:02:26.303Z,3.55
2023-05-24T01:05:28.526Z,3.10
2023-05-24T01:08:46.224Z,3.00
2023-05-24T01:12:08.112Z,3.57
2023-05-24T01:15:19.984Z,3.30
2023-05-24T01:18:31.451Z,3.35
2023-05-24T01:22:00.004Z,3.08
2023-05-24T01:25:24.979Z,3.00
2023-05-24T01:28:27.984Z,3.20
2023-05-24T01:31:30.444Z,3.17
2023-05-24T01:34:32.996Z,3.03
2023-05-24T01:37:35.352Z,3.28
2023-05-24T01:40:39.265Z,3.17
2023-05-24T01:44:16.692Z,3.30
2023-05-24T01:47:28.140Z,3.10
2023-05-24T01:50:37.194Z,3.45
2023-05-24T01:53:47.148Z,3.45
2023-05-24T01:56:50.069Z,3.58
2023-05-24T01:59:53.446Z,3.40
2023-05-24T02:02:57.407Z,3.20
2023-05-24T02:05:59.960Z,3.08
2023-05-24T02:09:02.105Z,3.35
2023-05-24T02:12:04.516Z,3.25
2023-05-24T02:15:07.123Z,3.57
2023-05-24T02:18:09.420Z,4.00
2023-05-24T02:21:13.238Z,3.70
2023-05-24T02:24:16.796Z,3.97
2023-05-24T02:27:20.656Z,3.90
2023-05-24T02:30:22.811Z,4.20
2023-05-24T02:33:29.869Z,4.13
2023-05-24T02:36:32.962Z,4.30
2023-05-24T02:39:35.186Z,4.63
2023-05-24T02:42:38.612Z,4.68
2023-05-24T02:45:41.010Z,4.50
2023-05-24T02:48:43.405Z,4.83
2023-05-24T02:51:46.453Z,5.05
2023-05-24T02:54:49.317Z,5.35
2023-05-24T02:57:51.686Z,4.97
2023-05-24T03:00:54.254Z,4.67
2023-05-24T03:03:57.676Z,4.73
2023-05-24T03:07:00.132Z,5.15
2023-05-24T03:10:02.460Z,4.63
2023-05-24T03:13:04.924Z,5.40
2023-05-24T03:16:07.737Z,5.07
2023-05-24T03:19:10.969Z,5.20
2023-05-24T03:22:15.768Z,5.03
2023-05-24T03:25:19.155Z,4.78
2023-05-24T03:28:22.472Z,4.80
2023-05-24T03:31:26.821Z,5.10
2023-05-24T03:34:30.337Z,5.03
2023-05-24T03:37:32.797Z,5.03
2023-05-24T03:40:35.245Z,5.53
2023-05-24T03:43:40.099Z,5.60
2023-05-24T03:46:42.236Z,5.93
2023-05-24T03:49:44.769Z,5.73
2023-05-24T03:52:48.360Z,5.20
2023-05-24T03:55:50.944Z,6.13
2023-05-24T03:58:53.602Z,5.93
2023-05-24T04:01:56.443Z,5.50
2023-05-24T04:04:58.823Z,6.57
2023-05-24T04:08:02.538Z,6.82
2023-05-24T04:11:05.242Z,6.32
2023-05-24T04:14:07.846Z,7.10
2023-05-24T04:17:10.610Z,6.90
2023-05-24T04:20:13.966Z,6.77
2023-05-24T04:23:17.580Z,8.57
2023-05-24T04:26:21.558Z,7.53
2023-05-24T04:29:26.907Z,8.50
2023-05-24T04:32:30.646Z,9.10
2023-05-24T04:35:32.861Z,8.67
2023-05-24T04:38:36.378Z,8.88
2023-05-24T04:41:39.051Z,9.95
2023-05-24T04:44:41.960Z,9.75
2023-05-24T04:47:44.274Z,9.60
2023-05-24T04:50:46.624Z,10.13
2023-05-24T04:53:48.773Z,9.18
2023-05-24T04:56:51.952Z,10.20
2023-05-24T04:59:54.432Z,10.32
2023-05-24T05:02:57.000Z,9.83
2023-05-24T05:05:59.829Z,10.87
2023-05-24T05:09:02.135Z,11.15
2023-05-24T05:12:06.922Z,10.25
2023-05-24T05:15:09.765Z,10.52
2023-05-24T05:18:12.495Z,10.33
2023-05-24T05:21:14.521Z,11.30
2023-05-24T05:24:17.293Z,12.10
2023-05-24T05:27:19.344Z,11.70
2023-05-24T05:30:22.014Z,11.45
2023-05-24T05:33:24.956Z,10.97
2023-05-24T05:36:27.327Z,11.03
2023-05-24T05:39:31.879Z,11.32
2023-05-24T05:42:34.515Z,11.10
2023-05-24T05:45:42.614Z,10.77
2023-05-24T05:48:46.419Z,11.13
2023-05-24T05:51:49.043Z,10.67
2023-05-24T05:54:56.999Z,10.00
2023-05-24T05:58:00.437Z,10.55
2023-05-24T06:01:02.805Z,9.02
2023-05-24T06:04:08.925Z,9.60
2023-05-24T06:07:15.079Z,7.50
2023-05-24T06:14:24.055Z,8.52
2023-05-24T06:18:03.680Z,9.43
2023-05-24T06:24:33.459Z,8.10
2023-05-24T06:27:48.027Z,8.10
2023-05-24T06:31:00.369Z,8.77
2023-05-24T06:34:04.338Z,8.35
2023-05-24T06:37:10.933Z,8.33
2023-05-24T06:40:16.462Z,8.00
2023-05-24T06:43:28.357Z,8.57
2023-05-24T06:46:34.868Z,8.48
2023-05-24T06:49:38.059Z,8.52
2023-05-24T06:52:56.413Z,9.17
2023-05-24T06:56:01.821Z,8.50
2023-05-24T06:59:12.056Z,8.55
2023-05-24T07:02:26.968Z,8.77
2023-05-24T07:06:23.817Z,8.75
2023-05-24T07:09:34.895Z,9.13
2023-05-24T07:13:14.073Z,8.30
2023-05-24T07:16:28.311Z,8.95
2023-05-24T07:19:31.479Z,8.55
2023-05-24T07:22:43.445Z,9.05
2023-05-24T07:25:57.373Z,7.67
2023-05-24T07:29:06.065Z,7.73
2023-05-24T07:32:12.148Z,7.85
2023-05-24T07:35:24.808Z,8.80
2023-05-24T07:38:31.963Z,7.93
2023-05-24T07:41:35.050Z,8.60
2023-05-24T07:44:37.806Z,7.30
2023-05-24T07:47:46.848Z,7.97
2023-05-24T07:50:52.972Z,8.20
2023-05-24T07:53:55.219Z,8.48
2023-05-24T07:56:59.034Z,8.07
2023-05-24T08:00:12.378Z,8.57
2023-05-24T08:04:25.658Z,8.68
2023-05-24T08:11:01.381Z,9.50
2023-05-24T08:14:10.356Z,9.53
2023-05-24T08:17:13.096Z,9.43
2023-05-24T08:20:16.320Z,10.00
2023-05-24T08:23:18.754Z,9.25
2023-05-24T08:26:21.245Z,9.50
2023-05-24T08:29:24.234Z,9.97
2023-05-24T08:32:29.611Z,9.33
2023-05-24T08:35:31.958Z,8.63
2023-05-24T08:38:34.273Z,9.43
2023-05-24T08:41:42.359Z,9.70
2023-05-24T08:44:56.331Z,8.27
2023-05-24T08:48:01.954Z,8.17
2023-05-24T08:51:11.229Z,9.15
2023-05-24T08:54:17.281Z,8.07
2023-05-24T08:57:27.160Z,7.70
2023-05-24T09:00:31.178Z,7.23
2023-05-24T09:03:49.033Z,7.63
2023-05-24T09:06:59.036Z,8.00
2023-05-24T09:10:13.114Z,6.72
2023-05-24T09:13:18.231Z,7.45
2023-05-24T09:16:36.357Z,6.87
2023-05-24T09:19:48.324Z,6.13
2023-05-24T09:23:00.738Z,7.25
2023-05-24T09:26:12.879Z,7.18
2023-05-24T09:29:29.275Z,6.75
2023-05-24T09:32:32.461Z,6.40
2023-05-24T09:35:37.850Z,6.07
2023-05-24T09:38:44.031Z,6.30
2023-05-24T09:41:57.681Z,7.10
2023-05-24T09:54:21.210Z,6.17
2023-05-24T09:58:10.336Z,6.32
2023-05-24T10:09:50.507Z,6.10
2023-05-24T10:12:58.585Z,5.30
2023-05-24T10:16:07.068Z,5.15
2023-05-24T10:19:58.554Z,6.13
2023-05-24T10:30:28.429Z,5.63
2023-05-24T10:40:54.313Z,5.55
2023-05-24T10:44:27.566Z,5.33
2023-05-24T10:47:45.102Z,5.87
2023-05-24T10:50:53.372Z,5.55
2023-05-24T10:53:59.181Z,5.22
2023-05-24T10:57:34.528Z,5.20
2023-05-24T11:00:46.684Z,5.73
2023-05-24T11:03:51.919Z,5.47
2023-05-24T11:07:10.227Z,5.05
2023-05-24T11:10:50.362Z,5.45
2023-05-24T11:20:14.684Z,5.37
2023-05-24T11:23:32.785Z,6.87
2023-05-24T11:26:37.451Z,4.93
2023-05-24T11:29:56.497Z,4.93
2023-05-24T11:33:27.986Z,5.43
2023-05-24T11:36:37.145Z,5.43
2023-05-24T11:39:46.332Z,5.23
2023-05-24T11:42:53.945Z,4.90
2023-05-24T11:45:57.978Z,4.90
2023-05-24T11:49:03.941Z,4.95
2023-05-24T11:52:07.733Z,4.80
2023-05-24T11:55:17.562Z,5.30
2023-05-24T12:03:09.996Z,5.30
2023-05-24T12:10:34.459Z,4.80
2023-05-24T12:13:38.696Z,4.53
2023-05-24T12:17:12.883Z,4.55
2023-05-24T12:21:31.288Z,5.13
2023-05-24T12:24:54.187Z,5.03
2023-05-24T12:28:19.438Z,4.40
2023-05-24T12:31:22.970Z,5.00
2023-05-24T12:34:26.350Z,4.88
2023-05-24T12:37:31.257Z,5.20
2023-05-24T12:40:34.977Z,4.90
2023-05-24T12:43:37.212Z,4.73
2023-05-24T12:46:45.181Z,4.77
2023-05-24T12:49:59.488Z,5.15
2023-05-24T12:53:01.688Z,4.70
2023-05-24T12:56:06.769Z,4.68
2023-05-24T12:59:09.065Z,4.37
2023-05-24T13:02:12.247Z,4.47
2023-05-24T13:09:58.321Z,4.32
2023-05-24T13:13:04.285Z,4.18
2023-05-24T13:16:09.236Z,4.40
2023-05-24T13:19:12.819Z,4.43
2023-05-24T13:22:16.462Z,4.25
2023-05-24T13:25:22.877Z,4.05
2023-05-24T13:28:26.595Z,4.38
2023-05-24T13:31:29.955Z,4.17
2023-05-24T13:34:33.672Z,4.23
2023-05-24T13:37:36.790Z,3.95
2023-05-24T13:40:41.920Z,4.00
2023-05-24T13:43:44.437Z,3.88
2023-05-24T13:46:47.762Z,4.07
2023-05-24T13:49:50.794Z,3.83
2023-05-24T13:52:58.886Z,4.35
2023-05-24T13:56:04.463Z,3.92
2023-05-24T13:59:07.272Z,4.10
2023-05-24T14:02:09.535Z,4.30
2023-05-24T14:05:26.997Z,4.07
2023-05-24T14:08:30.016Z,4.20
2023-05-24T14:11:34.332Z,3.85
2023-05-24T14:14:59.139Z,4.60
2023-05-24T14:18:01.078Z,3.73
2023-05-24T14:21:03.425Z,4.07
2023-05-24T14:24:05.682Z,4.00
2023-05-24T14:27:08.011Z,3.78
2023-05-24T14:30:10.750Z,3.88
2023-05-24T14:33:14.133Z,4.30
2023-05-24T14:36:16.517Z,4.30
2023-05-24T14:39:18.770Z,3.65
2023-05-24T14:42:21.958Z,4.13
2023-05-24T14:45:25.208Z,4.00
2023-05-24T14:48:27.398Z,3.70
2023-05-24T14:51:29.825Z,4.00
2023-05-24T14:54:32.330Z,3.72
2023-05-24T14:57:36.074Z,3.85
2023-05-24T15:00:39.740Z,3.65
2023-05-24T15:03:42.443Z,3.90
2023-05-24T15:06:45.088Z,3.73
2023-05-24T15:09:48.572Z,4.32
2023-05-24T15:12:52.903Z,4.13
2023-05-24T15:15:56.781Z,4.10
2023-05-24T15:18:59.597Z,4.10
2023-05-24T15:22:01.933Z,4.10
2023-05-24T15:25:04.276Z,3.72
2023-05-24T15:28:06.881Z,4.03
2023-05-24T15:31:10.249Z,3.50
2023-05-24T15:34:12.607Z,3.60
2023-05-24T15:37:14.871Z,4.03
2023-05-24T15:40:17.217Z,3.90
2023-05-24T15:43:20.404Z,4.65
2023-05-24T15:46:24.177Z,3.60
2023-05-24T15:49:26.919Z,3.80
2023-05-24T15:52:30.634Z,4.00
2023-05-24T15:55:34.042Z,3.95
2023-05-24T15:58:36.386Z,3.90
2023-05-24T16:01:39.198Z,3.40
2023-05-24T16:04:43.315Z,3.33
2023-05-24T16:07:46.592Z,3.73
2023-05-24T16:10:49.371Z,3.90
2023-05-24T16:13:54.316Z,3.45
2023-05-24T16:16:58.580Z,4.03
2023-05-24T16:20:05.143Z,3.90
2023-05-24T16:23:07.978Z,3.70
2023-05-24T16:26:10.192Z,3.70
2023-05-24T16:29:15.487Z,4.03
2023-05-24T16:32:17.748Z,3.50
2023-05-24T16:35:19.806Z,3.50
2023-05-24T16:38:23.775Z,3.40
2023-05-24T16:41:27.962Z,3.35
2023-05-24T16:44:30.757Z,3.78
2023-05-24T16:47:33.008Z,3.53
2023-05-24T16:50:36.407Z,3.33
2023-05-24T16:53:40.247Z,3.57
2023-05-24T16:56:42.798Z,3.60
2023-05-24T16:59:45.382Z,4.20
2023-05-24T17:06:24.481Z,3.80
2023-05-24T17:09:26.451Z,3.90
2023-05-24T17:12:29.695Z,3.97
2023-05-24T17:15:31.956Z,3.90
2023-05-24T17:18:34.229Z,4.55
2023-05-24T17:21:36.991Z,4.87
2023-05-24T17:24:40.157Z,4.97
2023-05-24T17:27:42.870Z,5.00
2023-05-24T17:30:45.735Z,4.68
2023-05-24T17:33:47.785Z,5.07
2023-05-24T17:36:50.037Z,5.20
2023-05-24T17:39:52.626Z,5.63
2023-05-24T17:42:54.916Z,5.53
2023-05-24T17:46:04.720Z,5.40
2023-05-24T17:49:07.126Z,5.20
2023-05-24T17:52:09.260Z,5.27
2023-05-24T17:55:11.306Z,5.23
2023-05-24T17:58:15.241Z,5.78
2023-05-24T18:01:17.580Z,5.78
2023-05-24T18:04:20.434Z,5.90
2023-05-24T18:07:22.667Z,5.93
2023-05-24T18:10:24.804Z,5.70
2023-05-24T18:13:28.143Z,5.40
2023-05-24T18:16:31.674Z,5.38
2023-05-24T18:19:34.083Z,5.80
2023-05-24T18:22:36.049Z,5.17
2023-05-24T18:25:41.152Z,5.50
2023-05-24T18:28:44.741Z,5.70
2023-05-24T18:31:47.247Z,5.38
2023-05-24T18:34:50.404Z,5.70
2023-05-24T18:37:52.358Z,5.63
2023-05-24T18:40:54.263Z,5.37
2023-05-24T18:43:56.732Z,5.20
2023-05-24T18:46:59.683Z,5.88
2023-05-24T18:50:01.680Z,5.53
2023-05-24T18:53:04.668Z,5.37
2023-05-24T18:56:08.246Z,5.30
2023-05-24T18:59:12.371Z,5.22
2023-05-24T19:02:14.729Z,4.82
2023-05-24T19:05:16.845Z,5.40
2023-05-24T19:08:18.890Z,5.10
2023-05-24T19:11:23.086Z,5.10
2023-05-24T19:14:25.773Z,4.93
2023-05-24T19:17:27.855Z,5.30
2023-05-24T19:20:30.328Z,4.82
2023-05-24T19:23:32.712Z,4.97
2023-05-24T19:26:37.866Z,5.20
2023-05-24T19:29:40.368Z,4.50
2023-05-24T19:32:42.756Z,5.20
2023-05-24T19:35:45.286Z,4.60
2023-05-24T19:38:50.556Z,4.67
2023-05-24T19:41:55.449Z,4.67
2023-05-24T19:44:57.479Z,4.70
2023-05-24T19:47:59.564Z,5.47
2023-05-24T19:51:01.828Z,4.68
2023-05-24T19:54:04.093Z,5.00
2023-05-24T19:57:06.584Z,4.87
2023-05-24T20:00:12.438Z,4.70
2023-05-24T20:03:14.511Z,5.30
2023-05-24T20:06:16.778Z,5.30
2023-05-24T20:09:19.481Z,5.73
2023-05-24T20:12:23.049Z,4.77
2023-05-24T20:15:28.379Z,4.80
2023-05-24T20:18:30.695Z,5.47
2023-05-24T20:21:32.934Z,5.32
2023-05-24T20:24:35.095Z,5.13
2023-05-24T20:27:40.642Z,5.40
2023-05-24T20:30:45.856Z,4.95
2023-05-24T20:33:49.861Z,5.60
2023-05-24T20:36:52.176Z,5.75
2023-05-24T20:39:54.339Z,5.40
2023-05-24T20:42:56.470Z,5.47
2023-05-24T20:46:00.804Z,5.38
2023-05-24T20:49:02.867Z,5.78
2023-05-24T20:52:06.122Z,5.47
2023-05-24T20:55:08.611Z,5.70
2023-05-24T20:58:11.198Z,5.80
2023-05-24T21:01:13.889Z,5.97
2023-05-24T21:04:16.274Z,5.80
2023-05-24T21:07:18.044Z,5.90
2023-05-24T21:10:20.600Z,5.90
2023-05-24T21:13:22.851Z,6.30
2023-05-24T21:16:26.048Z,6.00
2023-05-24T21:19:30.610Z,6.15
2023-05-24T21:22:35.388Z,5.60
2023-05-24T21:25:39.655Z,6.60
2023-05-24T21:28:41.695Z,6.47
2023-05-24T21:31:44.110Z,6.57
2023-05-24T21:34:46.419Z,6.05
2023-05-24T21:37:48.878Z,5.97
2023-05-24T21:40:51.130Z,6.33
2023-05-24T21:43:53.310Z,5.93
2023-05-24T21:46:56.088Z,5.63
2023-05-24T21:49:59.414Z,5.90
2023-05-24T21:53:02.521Z,6.22
2023-05-24T21:59:21.529Z,6.13
2023-05-24T22:02:23.845Z,6.07
2023-05-24T22:05:27.767Z,5.88
2023-05-24T22:08:30.881Z,5.82
2023-05-24T22:11:35.117Z,6.50
2023-05-24T22:14:38.362Z,6.13
2023-05-24T22:17:42.056Z,5.72
2023-05-24T22:20:45.760Z,6.07
2023-05-24T22:23:48.000Z,6.07
2023-05-24T22:26:50.076Z,6.57
2023-05-24T22:29:53.825Z,6.73
2023-05-24T22:32:56.735Z,6.40
2023-05-24T22:35:58.858Z,6.00
2023-05-24T22:39:01.715Z,6.45
2023-05-24T22:42:04.008Z,7.00
2023-05-24T22:45:06.831Z,6.33
2023-05-24T22:48:10.620Z,6.32
2023-05-24T22:51:13.186Z,6.88
2023-05-24T22:54:15.902Z,7.03
2023-05-24T22:57:22.616Z,6.90
2023-05-24T23:00:24.799Z,6.47
2023-05-24T23:03:26.821Z,6.40
2023-05-24T23:06:32.078Z,7.13
2023-05-24T23:09:34.929Z,6.43
2023-05-24T23:12:37.207Z,6.70
2023-05-24T23:15:42.729Z,6.80
2023-05-24T23:18:45.563Z,6.80
2023-05-24T23:21:53.239Z,6.28
2023-05-24T23:24:55.151Z,6.75
2023-05-24T23:27:57.190Z,7.33
2023-05-24T23:30:59.458Z,6.43
2023-05-24T23:34:01.501Z,6.70
2023-05-24T23:37:04.806Z,6.75
2023-05-24T23:40:08.752Z,6.82
2023-05-24T23:43:13.854Z,7.17
2023-05-24T23:46:17.677Z,7.47
2023-05-24T23:49:20.651Z,7.10
2023-05-24T23:52:22.772Z,7.30
2023-05-24T23:55:24.788Z,6.75
2023-05-24T23:58:26.887Z,6.77
